POKER ONLINE UANG ASLI TERPERCAYA

togel online

Jackpot

Texas Poker Multi Jackpot System

Kini Telah hadir Jackpot SUPER ROYAL FLUSH

Kini Telah hadir Jackpot 2000 (khusus table VIP keatas).

Ikutilah global jackpot yang tersedia di system kami, dengan system jackpot terbaru dan pertama di indonesia, anda dapat membeli jackpot dengan harga 100 rupiah saja dan menangkan hadiahnya hingga puluhan juta rupiah.

Jackpot bukanlah suatu keharusan untuk dibeli, namun kami memberikan suatu fitur tambahan untuk member tercinta dari www.jeniuspoker.org.

Terdapat tiga pilihan harga jackpot yang bisa anda beli yaitu :100,500,1000 dan 2000(khusus table VIP Keatas) rupiah.

Hadiah dari Multi jackpot system www.jeniuspoker.org

  1. full house x 10 harga jackpot yang anda beli.
      (contoh:anda membeli 1000 maka:1000 X10 = 10.000)
  2. four of kind x 250 harga jackpot yang anda beli
      (contoh:anda membeli 1000 maka:1000 X250 = 250.000)
  3. Straight flush x 1200
      (contoh:anda membeli 1000 maka:1000 X1200 = 1.200.000)
  4. Royal flush x 10000 harga jackpot yang anda beli
      (contoh:anda membeli 1000 maka:1000 X10000 = 10.000.000)
  5. SUPER ROYAL FLUSH x 30000 harga jackpot yang anda beli
      (contoh:anda membeli 1000 maka:1000 X30000 = 30.000.000)

Kondisi kartu

  1. full house adalah kondisi kartu dimana kartu anda dan kartu tengah dengan total 7 kartu bisa mendapatkan nilai 5 kartu dengan kombinasi 1 tris(three of kind) dan 1 pair, contoh 3 kartu 10 dan 2 kartu 5
  2. Four of kind adalah kondisi kartu dimana kartu anda dan kartu tengah dengan total 7 kartu bisa mendapatkan nilai 5 kartu dengan kombinasi 4 kartu yang sama jumlah dan 1 kartu apapun juga contoh anda mendapatkan 4 buah kartu angka 3 dan 1 kartu apapun.
  3. Staright flush adalah kondisi kartu dimana kartu anda dan kartu tengah dengan total 7 kartu bisa mendapatkan nilai 5 kartu dengan kombinasi seri / staright dengan kembang yang sama contoh : urutan kartu dari angka 5, 6, 7, 8 , 9 10 dengan kembang yg sama misalnya as hati
  4. Royal flush adalah kondisi kartu dimana kartu anda dan kartu tengah dengan total 7 kartu bisa mendapatkan nilai 5 kartu dengan kombinasi seri / staright dengan kembang yang sama tetapi kartu tersebut haruslah dimulai dari 10. contoh 10, Queen, Jack, King dan aces dengan kembang yang sama
  5. Super Royal flush adalah kondisi kartu dimana Kedua kartu anda digabung dengan 3 kartu pertama meja haruslah royal flush. contoh kartu anda 10,Queen kembang sama dan 3 kartu pertama meja adalah Jack, King dan aces dengan kembang yang sama

Demikian adalah penjelasan dari Multi Jackpot www.jeniuspoker.org terima kasih dan selamat bermain salam hoki dari kami

Texas Poker Jackpot Winner

TOP SUPER ROYAL FLUSH
No.TanggalNamaPriceWin
123/05 06:58MEJEWSuper Royal flush15,000,000
223/05 04:35MIZA03Super Royal flush15,000,000
323/05 02:38CERPE12Super Royal flush30,000,000
423/05 01:43GREEND99Super Royal flush3,000,000
523/05 00:51AAMUELQQSuper Royal flush30,000,000
TOP ROYAL FLUSH
No.TanggalNamaPriceWin
123/05 11:38DORDOR_99Royal flush5,000,000
223/05 11:29SEVILLAFC1Royal flush2,000,000
323/05 11:08AYONG777Royal flush10,000,000
423/05 10:34NGOPI_NAPARoyal flush2,000,000
523/05 10:19ADUY90Royal flush1,000,000
TOP STRAIGHT FLUSH
No.TanggalNamaPriceWin
123/05 11:41MUKSIN444Straight Flush120,000
223/05 11:40BOSKURPGStraight Flush240,000
323/05 11:37DEWWA89Straight Flush240,000
423/05 11:379GANA9Straight Flush120,000
523/05 11:33BOBONO11Straight Flush240,000
LATEST JACKPOT
No.TanggalNamaPriceWin
123/05 11:42XPXPXPFull House2,000
223/05 11:42LINDUNG69Full House1,000
323/05 11:42BODAD1998Full House2,000
423/05 11:42BLAKUTAX33Full House2,000
523/05 11:42A06BUAHANFull House2,000
623/05 11:41MAMAK008Full House5,000
723/05 11:41NASIKUNIFull House1,000
823/05 11:41ONGKEN9Full House5,000
923/05 11:41HARRAT123Full House5,000
1023/05 11:41MISSION_01Full House5,000
1123/05 11:41TEMPIK01Four Of A Kind50,000
1223/05 11:41KULUP_OOFour Of A Kind50,000
1323/05 11:41DAYANDRA02Four Of A Kind50,000
1423/05 11:41EC763A08Full House1,000
1523/05 11:41NYIRORO93Full House10,000
1623/05 11:41MEDUZAFull House2,000
1723/05 11:41JUVEE3EFull House2,000
1823/05 11:41KEISHA28Full House20,000
1923/05 11:41ANVIA1982Full House2,000
2023/05 11:41NAZRIEL27Full House2,000
2123/05 11:41CRISTOPER6Full House5,000
2223/05 11:41GIRINGANFull House1,000
2323/05 11:41E32BAD72Full House1,000
2423/05 11:41PVYPL5KWZXFull House1,000
2523/05 11:41ROGAS3047Full House2,000
2623/05 11:41KY3UP55Full House5,000
2723/05 11:41JECKPFull House10,000
2823/05 11:41FIRU2SOCPCFull House5,000
2923/05 11:41OPELTENGUFull House1,000
3023/05 11:41MAYKLY5555Four Of A Kind500,000
3123/05 11:41JPJP16Full House2,000
3223/05 11:41CITY19Full House2,000
3323/05 11:41MUKSIN444Straight Flush120,000
3423/05 11:41FRISKATIAFull House10,000
3523/05 11:41TANTAN8778Full House20,000
3623/05 11:41ABIRA88Full House5,000
3723/05 11:41ADULMAILFull House1,000
3823/05 11:41RIGE82Full House1,000
3923/05 11:41LOW10Full House1,000
4023/05 11:41BALLE77Full House5,000
4123/05 11:41BULIONO12Full House1,000
4223/05 11:41FIGHTING69Full House5,000
4323/05 11:41ALEA888Full House2,000
4423/05 11:41POPPIES16Full House1,000
4523/05 11:41AGARSUKSESFull House2,000
4623/05 11:41PIPOKERMANFour Of A Kind25,000
4723/05 11:41GEM0011Full House10,000
4823/05 11:41RRN277Full House1,000
4923/05 11:41CACA_27Full House1,000
5023/05 11:41DODOW1Full House5,000

Domino Multi Jackpot System

Ikutilah global jackpot yang tersedia di system kami, dengan system jackpot terbaru dan pertama di indonesia, anda dapat membeli jackpot dengan harga 100 rupiah saja dan menangkan hadiahnya hingga puluhan juta rupiah.

Jackpot bukanlah suatu keharusan untuk dibeli, namun kami memberikan suatu fitur tambahan untuk member tercinta dari www.jeniuspoker.org.

Terdapat tiga pilihan harga jackpot yang bisa anda beli yaitu :100,500 dan 1000 rupiah.

Hadiah dari Multi jackpot system www.jeniuspoker.org

  1. Murni Kecil x 50 harga jackpot yang anda beli.
      (contoh:anda membeli 1000 maka:1000 X 50 = 50.000)
  2. Murni Besar x 50 harga jackpot yang anda beli
      (contoh:anda membeli 1000 maka:1000 X 50 = 50.000)
  3. BALAK x 100 harga jackpot yang anda beli
      (contoh:anda membeli 1000 maka:1000 X 100 = 100.000)
  4. ENAM DEWA x 6666 harga jackpot yang anda beli
      (contoh:anda membeli 1000 maka:1000 X 6666 = 6.666.000)

Demikian adalah penjelasan dari Multi Jackpot www.jeniuspoker.org terima kasih dan selamat bermain salam hoki dari kami

Domino Jackpot Winner

TOP ENAM DEWA
No.TanggalNamaPriceWin
123/05 11:22LB888918murni enam666,600
223/05 09:22OKTO65murni enam3,333,000
323/05 06:08MULTIPLAY8murni enam6,666,000
423/05 03:35NTONGREMONmurni enam3,333,000
523/05 03:16EJWQBPCCSQmurni enam666,600
TOP BALAK
No.TanggalNamaPriceWin
123/05 11:42V_X10Nbalak100,000
223/05 11:32PAKWONG28balak100,000
323/05 11:31DADANGCEPbalak10,000
423/05 11:21MARYANTO70balak100,000
523/05 11:14R1YON22balak10,000
LATEST JACKPOT
No.TanggalNamaPriceWin
123/05 11:42V_X10Nbalak100,000
223/05 11:41EMPEROROVmurni besar25,000
323/05 11:41KERONTANmurni kecil5,000
423/05 11:41MAMPIR32murni besar5,000
523/05 11:40MARYANTO70murni kecil50,000
623/05 11:40PENCENG90murni kecil50,000
723/05 11:39HRTNmurni kecil25,000
823/05 11:37DHYDHYmurni besar50,000
923/05 11:37MUNISImurni besar50,000
1023/05 11:36WINNER2187murni besar5,000
1123/05 11:36THE_101murni kecil5,000
1223/05 11:34CIPUT69murni besar5,000
1323/05 11:34ZACXmurni besar25,000
1423/05 11:34DIANATIOmurni besar50,000
1523/05 11:34BBEEKIYU66murni kecil50,000
1623/05 11:34BOLUI009murni besar50,000
1723/05 11:34PAP86murni kecil25,000
1823/05 11:33MRGALAU3murni besar50,000
1923/05 11:32GOODPAPAmurni kecil5,000
2023/05 11:32PAKWONG28balak100,000
2123/05 11:31DADANGCEPbalak10,000
2223/05 11:30HAM626murni besar50,000
2323/05 11:29BBCA13murni kecil5,000
2423/05 11:28AHONGPEONGmurni kecil5,000
2523/05 11:28T0L36666murni kecil5,000
2623/05 11:27ZONIAJA123lucky9925,000
2723/05 11:27HESTY90murni kecil25,000
2823/05 11:25RASIQPACUmurni besar5,000
2923/05 11:25PAKILLmurni kecil25,000
3023/05 11:24CB77DODOL99murni besar25,000
3123/05 11:24GOLEM999murni kecil50,000
3223/05 11:23CIKAU99AJAmurni besar50,000
3323/05 11:22LB888918murni enam666,600
3423/05 11:21MARYANTO70balak100,000
3523/05 11:20KIMJUNGASUmurni kecil25,000
3623/05 11:19DELLI1990murni besar5,000
3723/05 11:15MARYANTO70murni besar50,000
3823/05 11:15ADEUYI123murni besar5,000
3923/05 11:14MIKHATBYGmurni besar50,000
4023/05 11:14R1YON22balak10,000
4123/05 11:13CARLENZ88murni kecil50,000
4223/05 11:13SJPOKER035murni kecil5,000
4323/05 11:13ONYON_AUUOmurni besar25,000
4423/05 11:12JOY_IJOOOmurni besar5,000
4523/05 11:12BUROCO99murni besar5,000
4623/05 11:11D498AC76balak10,000
4723/05 11:10P4NT01murni besar5,000
4823/05 11:10VYATTAmurni kecil50,000
4923/05 11:10E11664AEmurni kecil25,000
5023/05 11:09EMPEROROVmurni kecil25,000

Ceme Multi Jackpot System

Jackpot dilihat dari gabungan kartu pemain dengan kartu bandar. Bandar harus membeli jackpot sebanyak jumlah player yang sedang duduk. Sebagai contoh bila terdapat 3 pemain duduk bermain, dan bandar memutuskan untuk membeli jackpot Rp 1.000, maka pada periode tersebut bandar akan membeli jackpot sebanyak 3xRp1.000 = Rp3.000.

Jackpot bukanlah suatu keharusan untuk dibeli, namun kami memberikan suatu fitur tambahan untuk member tercinta dari www.jeniuspoker.org.

Terdapat tiga pilihan harga jackpot yang bisa anda beli yaitu :100,500 dan 1000 rupiah.

Hadiah dari Multi jackpot system www.jeniuspoker.org

  1. Murni Kecil x 50 harga jackpot yang anda beli.
      (contoh:anda membeli 1000 maka:1000 X 50 = 50.000)
  2. Murni Besar x 50 harga jackpot yang anda beli
      (contoh:anda membeli 1000 maka:1000 X 50 = 50.000)
  3. BALAK x 200 harga jackpot yang anda beli
      (contoh:anda membeli 1000 maka:1000 X 200 = 200.000)
  4. ENAM DEWA x 6666 harga jackpot yang anda beli
      (contoh:anda membeli 1000 maka:1000 X 6666 = 6.666.000)

Demikian adalah penjelasan dari Multi Jackpot www.jeniuspoker.org terima kasih dan selamat bermain salam hoki dari kami

Ceme Jackpot Winner

TOP ENAM DEWA
No.TanggalNamaPriceWin
123/05 11:35MANTEP777murni enam6,666,000
223/05 11:21CHOUNG27murni enam6,666,000
323/05 09:46YESYOS88murni enam6,666,000
423/05 09:46IDNGCONG14murni enam3,333,000
523/05 08:50HK_5888murni enam6,666,000
TOP BALAK
No.TanggalNamaPriceWin
123/05 11:41FIGHTHINGbalak200,000
223/05 11:41MARTHINEZbalak200,000
323/05 11:39YESYOS88balak200,000
423/05 11:39YORDYbalak200,000
523/05 11:39BRINGAZ86balak200,000
LATEST JACKPOT
No.TanggalNamaPriceWin
123/05 11:42B453Lmurni besar25,000
223/05 11:41FIGHTHINGbalak200,000
323/05 11:41DIWANA18murni besar50,000
423/05 11:41N00R112murni besar50,000
523/05 11:41MARTHINEZbalak200,000
623/05 11:41SLAM3T12murni besar25,000
723/05 11:40CAKMAMAT12murni kecil50,000
823/05 11:40BETANIA123murni besar50,000
923/05 11:40LOCJMN1TSVmurni besar50,000
1023/05 11:40LOCJMN1TSVmurni besar50,000
1123/05 11:40FAJARRAH33murni kecil50,000
1223/05 11:40DIWANA18murni besar50,000
1323/05 11:40TUMBANG00murni besar50,000
1423/05 11:40DWIDAIRmurni besar50,000
1523/05 11:40GULSERENmurni kecil50,000
1623/05 11:40GALIH51murni kecil50,000
1723/05 11:40GALIH51murni kecil50,000
1823/05 11:40SONICKS97murni kecil50,000
1923/05 11:39YESYOS88balak200,000
2023/05 11:39YORDYbalak200,000
2123/05 11:39BRINGAZ86balak200,000
2223/05 11:39ZUQIbalak200,000
2323/05 11:39LOCJMN1TSVmurni kecil50,000
2423/05 11:39WZQ554Y23Imurni kecil50,000
2523/05 11:39DOPKAmurni kecil5,000
2623/05 11:38DWTWKWKmurni kecil5,000
2723/05 11:38CHANPATTIMmurni kecil50,000
2823/05 11:38BP880999murni kecil50,000
2923/05 11:38B02U10311murni kecil5,000
3023/05 11:38BENDOERmurni kecil25,000
3123/05 11:38JAGAU699murni besar25,000
3223/05 11:38HRP561978murni kecil50,000
3323/05 11:38AQUINE90murni kecil5,000
3423/05 11:38NAIDA95murni kecil5,000
3523/05 11:37DYCTRA13murni kecil50,000
3623/05 11:37MONYET666murni kecil25,000
3723/05 11:37GARENKS91murni kecil50,000
3823/05 11:37JACKWARRmurni kecil25,000
3923/05 11:37PDLAN12balak100,000
4023/05 11:37HHYI6ZK94Bmurni besar25,000
4123/05 11:37NGICUKMmurni kecil50,000
4223/05 11:37ELICEE1234murni kecil50,000
4323/05 11:37INDEKAS1_balak200,000
4423/05 11:36YESYOS88balak200,000
4523/05 11:36WDRU789balak200,000
4623/05 11:36RIMAROSmurni kecil25,000
4723/05 11:36YUSRAN_murni kecil5,000
4823/05 11:36SNI54703murni kecil50,000
4923/05 11:36MALEHOY777murni kecil50,000
5023/05 11:36AD2578murni kecil25,000